createdAt,value
2022-12-11T00:03:46.097Z,2957.5183946488296
2022-12-11T00:10:16.555Z,2998.304347826087
2022-12-11T00:16:49.901Z,2934.7023411371238
2022-12-11T00:23:28.126Z,3002.769230769231
2022-12-11T00:32:28.756Z,3123.511705685619
2022-12-11T00:46:26.314Z,3074.4682274247493
2022-12-11T00:57:32.364Z,3028.725752508361
2022-12-11T01:06:32.033Z,3096.180602006689
2022-12-11T01:12:58.653Z,3039.6220735785955
2022-12-11T01:21:45.819Z,3052.936454849498
2022-12-11T01:32:48.723Z,2918.1772575250834
2022-12-11T01:39:13.015Z,2953.7959866220735
2022-12-11T01:45:40.128Z,2935.6454849498327
2022-12-11T01:52:05.128Z,2954.9197324414718
2022-12-11T01:58:30.309Z,3002.1170568561874
2022-12-11T02:06:13.108Z,3006.6120401337794
2022-12-11T02:14:49.677Z,3020.7391304347825
2022-12-11T02:21:14.435Z,2922.9933110367892
2022-12-11T02:27:39.468Z,2951.6588628762543
2022-12-11T02:34:11.882Z,2972.2274247491637
2022-12-11T02:40:38.955Z,2898.9933110367892
2022-12-11T02:47:03.914Z,2985.521739130435
2022-12-11T02:53:29.004Z,3019.545150501672
2022-12-11T02:59:54.129Z,2994.401337792642
2022-12-11T03:15:22.590Z,3037.2140468227426
2022-12-11T03:29:29.969Z,3176.9197324414718
2022-12-11T03:35:55.445Z,3122.3779264214045
2022-12-11T03:43:35.784Z,3121.4046822742475
2022-12-11T03:50:14.011Z,3180.8829431438126
2022-12-11T03:56:39.531Z,3182.016722408027
2022-12-11T04:03:13.019Z,3221.5284280936453
2022-12-11T04:09:39.775Z,3215.5785953177256
2022-12-11T04:16:06.391Z,3248.367892976589
2022-12-11T04:22:31.732Z,3195.7725752508363
2022-12-11T04:28:57.480Z,3194.096989966555
2022-12-11T04:35:24.776Z,3262.545150501672
2022-12-11T04:41:51.022Z,3218.4983277591973
2022-12-11T04:54:47.072Z,3113.678929765886
2022-12-11T05:01:14.365Z,3146.7491638795987
2022-12-11T05:07:40.177Z,3126.6120401337794
2022-12-11T05:14:06.091Z,3012.581939799331
2022-12-11T05:23:15.817Z,3077.5484949832776
2022-12-11T05:29:42.383Z,3060.3411371237457
2022-12-11T05:36:08.890Z,3144.2508361204013
2022-12-11T05:42:35.087Z,3237.632107023411
2022-12-11T05:49:01.502Z,3291.321070234114
2022-12-11T05:59:25.856Z,3010.7157190635453
2022-12-11T06:09:21.947Z,2995.8260869565215
2022-12-11T06:15:48.311Z,3084.160535117057
2022-12-11T06:28:13.245Z,2984.56856187291
2022-12-11T06:34:38.892Z,2937.391304347826
2022-12-11T06:41:05.067Z,2937.5016722408027
2022-12-11T06:47:30.596Z,2839.304347826087
2022-12-11T06:54:56.720Z,2890.7859531772574
2022-12-11T07:01:22.802Z,2803.735785953177
2022-12-11T07:07:48.304Z,2807.5484949832776
2022-12-11T07:18:44.203Z,2735.0367892976587
2022-12-11T07:25:13.671Z,2800.103678929766
2022-12-11T07:32:31.792Z,2735.247491638796
2022-12-11T07:39:01.151Z,2754.581939799331
2022-12-11T07:45:26.855Z,2783.3478260869565
2022-12-11T07:51:52.072Z,2752.5551839464883
2022-12-11T07:58:17.836Z,2781.752508361204
2022-12-11T08:08:50.653Z,4409.127090301004
2022-12-11T08:15:29.801Z,3026.7190635451507
2022-12-11T08:22:00.258Z,3922.123745819398
2022-12-11T08:28:35.928Z,3920.6688963210704
2022-12-11T08:35:19.827Z,3586.274247491639
2022-12-11T08:41:54.523Z,2881.6254180602004
2022-12-11T08:48:29.171Z,2832.752508361204
2022-12-11T09:01:27.300Z,3062.879598662207
2022-12-11T09:08:34.791Z,3184.47491638796
2022-12-11T09:21:29.889Z,5680.876254180602
2022-12-11T09:30:51.058Z,3066.401337792642
2022-12-11T09:37:23.448Z,3028.063545150502
2022-12-11T09:44:25.783Z,3428.8896321070233
2022-12-11T09:52:20.294Z,2861.879598662207
2022-12-11T10:02:57.601Z,2973.632107023411
2022-12-11T10:09:27.175Z,2964.722408026756
2022-12-11T10:15:58.202Z,3001.7157190635453
2022-12-11T10:22:33.407Z,3018.38127090301
2022-12-11T10:34:03.841Z,2993.759197324415
2022-12-11T10:40:34.615Z,2978.247491638796
2022-12-11T10:48:45.464Z,3029.277591973244
2022-12-11T10:55:11.331Z,3090.4615384615386
2022-12-11T11:02:47.819Z,3115.123745819398
2022-12-11T11:09:16.752Z,3050.478260869565
2022-12-11T11:15:44.918Z,3186.4214046822744
2022-12-11T11:22:13.340Z,3142.5551839464883
2022-12-11T11:46:32.856Z,3118.7458193979933
2022-12-11T11:52:59.916Z,3151.264214046823
2022-12-11T12:02:57.117Z,3172.685618729097
2022-12-11T12:09:25.706Z,3260.3076923076924
2022-12-11T12:15:54.885Z,3359.809364548495
2022-12-11T12:24:50.263Z,3345.3110367892978
2022-12-11T12:31:21.933Z,3324.210702341137
2022-12-11T12:37:49.645Z,3320.217391304348
2022-12-11T12:49:16.877Z,3323.488294314381
2022-12-11T12:58:58.316Z,3342.943143812709
2022-12-11T13:05:51.905Z,3318.200668896321
2022-12-11T13:17:00.886Z,3487.876254180602
2022-12-11T13:24:33.429Z,3441.6421404682274
2022-12-11T13:34:17.755Z,3565.0434782608695
2022-12-11T13:40:43.602Z,3494.769230769231
2022-12-11T13:47:10.825Z,3600.3110367892978
2022-12-11T13:53:37.811Z,3642.040133779264
2022-12-11T14:00:06.025Z,3596.678929765886
2022-12-11T14:06:31.230Z,3663.8127090301005
2022-12-11T14:12:57.757Z,4260.6822742474915
2022-12-11T14:19:24.663Z,4177.414715719064
2022-12-11T14:25:50.455Z,3782.5284280936453
2022-12-11T14:32:16.455Z,3880.3745819397996
2022-12-11T14:43:35.320Z,3793.545150501672
2022-12-11T14:51:43.770Z,3831.6622073578596
2022-12-11T14:58:10.340Z,3897.160535117057
2022-12-11T15:04:37.595Z,3783.43143812709
2022-12-11T15:13:31.451Z,3740.7491638795987
2022-12-11T15:22:28.230Z,3714.551839464883
2022-12-11T15:28:53.549Z,3656.648829431438
2022-12-11T15:35:26.851Z,3648.9732441471574
2022-12-11T15:42:56.472Z,3742.3745819397996
2022-12-11T15:55:17.496Z,4243.123745819398
2022-12-11T16:01:42.591Z,3894.8227424749166
2022-12-11T16:12:08.970Z,3912.361204013378
2022-12-11T16:25:07.487Z,4046.0267558528426
2022-12-11T16:37:22.963Z,4013.3076923076924
2022-12-11T16:43:48.988Z,3991.926421404682
2022-12-11T17:00:07.452Z,4199.789297658863
2022-12-11T17:08:03.877Z,4249.876254180602
2022-12-11T17:14:36.346Z,4249.755852842809
2022-12-11T17:21:03.225Z,4574.13712374582
2022-12-11T17:27:29.164Z,4555.053511705685
2022-12-11T17:33:55.479Z,4213.896321070234
2022-12-11T17:41:29.127Z,4330.103678929766
2022-12-11T17:47:54.303Z,4215.872909698996
2022-12-11T18:12:29.837Z,4691.7692307692305
2022-12-11T18:19:10.438Z,5075.678929765886
2022-12-11T18:25:39.266Z,5734.9866220735785
2022-12-11T18:32:08.518Z,5747.3177257525085
2022-12-11T18:38:33.870Z,5065.735785953178
2022-12-11T18:44:59.789Z,4957.816053511706
2022-12-11T18:51:27.429Z,5112.963210702341
2022-12-11T18:57:56.827Z,5103.652173913043
2022-12-11T19:04:23.615Z,5107.695652173913
2022-12-11T19:10:49.394Z,5073.933110367893
2022-12-11T19:23:52.313Z,5550.130434782609
2022-12-11T19:30:22.730Z,6205.083612040134
2022-12-11T20:55:46.531Z,6445.444816053512
2022-12-11T20:59:14.169Z,5550.130434782609
2022-12-11T21:06:36.421Z,5864.759197324414
2022-12-11T21:13:23.581Z,5625.882943143813
2022-12-11T21:23:07.013Z,5906.197324414716
2022-12-11T21:29:28.315Z,5791.183946488294
2022-12-11T21:35:49.663Z,5840.779264214047
2022-12-11T21:42:12.789Z,5674.42474916388
2022-12-11T21:48:35.545Z,5722.615384615385
2022-12-11T21:54:54.628Z,5684.408026755853
2022-12-11T22:01:18.585Z,5739.702341137124
2022-12-11T22:07:40.586Z,5432.989966555184
2022-12-11T22:18:35.325Z,5045.7692307692305
2022-12-11T22:25:39.439Z,4913.8394648829435
2022-12-11T22:34:56.098Z,4942.153846153846
2022-12-11T22:41:22.166Z,4936.695652173913
2022-12-11T22:47:42.531Z,5005.645484949833
2022-12-11T22:54:03.546Z,4989.742474916388
2022-12-11T23:00:24.419Z,4889.84949832776
2022-12-11T23:06:45.102Z,5034.632107023412
2022-12-11T23:18:31.796Z,5080.695652173913
2022-12-11T23:24:52.902Z,5008.785953177257
2022-12-11T23:34:24.663Z,4895.167224080267
2022-12-11T23:40:43.892Z,4898.84949832776
2022-12-11T23:50:54.098Z,4837.755852842809
